createdAt,value
2022-11-05T00:00:40.266Z,249.68
2022-11-05T00:03:46.040Z,264.83
2022-11-05T00:06:51.746Z,269.70
2022-11-05T00:09:41.928Z,250.90
2022-11-05T00:12:47.643Z,293.00
2022-11-05T00:15:55.655Z,267.35
2022-11-05T00:18:43.551Z,269.23
2022-11-05T00:21:49.234Z,268.52
2022-11-05T00:24:55.042Z,269.03
2022-11-05T00:27:45.444Z,252.37
2022-11-05T00:30:33.393Z,261.80
2022-11-05T00:33:21.714Z,274.70
2022-11-05T00:36:11.320Z,272.45
2022-11-05T00:38:59.250Z,253.45
2022-11-05T00:42:07.124Z,295.98
2022-11-05T00:45:01.309Z,277.10
2022-11-05T00:48:09.591Z,268.88
2022-11-05T00:50:57.646Z,258.33
2022-11-05T00:53:45.584Z,283.50
2022-11-05T00:56:33.519Z,271.13
2022-11-05T00:59:21.414Z,274.65
2022-11-05T01:02:10.799Z,273.57
2022-11-05T01:04:58.771Z,291.00
2022-11-05T01:07:46.880Z,270.98
2022-11-05T01:10:34.841Z,272.47
2022-11-05T01:13:25.333Z,279.50
2022-11-05T01:16:13.247Z,280.08
2022-11-05T01:19:03.879Z,277.55
2022-11-05T01:21:51.781Z,282.35
2022-11-05T01:24:39.727Z,288.00
2022-11-05T01:27:27.632Z,280.20
2022-11-05T01:30:15.593Z,265.20
2022-11-05T01:33:04.244Z,291.65
2022-11-05T01:35:53.559Z,272.52
2022-11-05T01:38:41.521Z,276.13
2022-11-05T01:41:29.452Z,250.93
2022-11-05T01:44:56.635Z,273.27
2022-11-05T01:47:52.425Z,253.68
2022-11-05T01:50:47.189Z,256.25
2022-11-05T01:53:42.184Z,249.88
2022-11-05T01:56:36.471Z,264.13
2022-11-05T01:59:28.190Z,266.67
2022-11-05T02:02:19.211Z,276.63
2022-11-05T02:05:08.052Z,265.98
2022-11-05T02:07:56.690Z,254.35
2022-11-05T02:10:46.866Z,273.35
2022-11-05T02:13:34.763Z,266.57
2022-11-05T02:16:36.363Z,281.27
2022-11-05T02:20:02.736Z,253.90
2022-11-05T02:23:11.713Z,259.88
2022-11-05T02:26:46.024Z,283.07
2022-11-05T02:30:04.081Z,258.65
2022-11-05T02:33:07.405Z,255.47
2022-11-05T02:36:18.790Z,259.90
2022-11-05T02:39:16.673Z,269.33
2022-11-05T02:42:13.227Z,277.58
2022-11-05T02:45:07.098Z,270.20
2022-11-05T02:48:06.210Z,275.35
2022-11-05T02:50:59.625Z,251.60
2022-11-05T02:53:52.514Z,277.87
2022-11-05T02:56:43.374Z,255.00
2022-11-05T02:59:31.362Z,279.63
2022-11-05T03:02:19.399Z,257.65
2022-11-05T03:05:09.050Z,284.85
2022-11-05T03:08:06.401Z,260.40
2022-11-05T03:11:02.378Z,286.83
2022-11-05T03:13:54.506Z,273.27
2022-11-05T03:16:44.061Z,271.23
2022-11-05T03:19:38.489Z,265.10
2022-11-05T03:22:35.650Z,264.83
2022-11-05T03:25:26.819Z,280.43
2022-11-05T03:28:15.927Z,274.95
2022-11-05T03:31:06.512Z,268.07
2022-11-05T03:33:55.894Z,277.40
2022-11-05T03:36:48.023Z,259.57
2022-11-05T03:39:41.648Z,258.10
2022-11-05T03:42:33.659Z,284.37
2022-11-05T03:45:24.528Z,285.73
2022-11-05T03:48:15.495Z,281.30
2022-11-05T03:51:09.542Z,266.43
2022-11-05T03:54:00.235Z,264.85
2022-11-05T03:57:01.789Z,270.30
2022-11-05T03:59:51.325Z,289.10
2022-11-05T04:02:39.725Z,273.35
2022-11-05T04:05:27.720Z,268.27
2022-11-05T04:08:33.223Z,274.33
2022-11-05T04:11:38.651Z,256.65
2022-11-05T04:14:27.938Z,253.18
2022-11-05T04:17:15.983Z,274.38
2022-11-05T04:20:21.959Z,269.52
2022-11-05T04:23:28.587Z,267.10
2022-11-05T04:26:16.510Z,253.67
2022-11-05T04:29:21.952Z,272.20
2022-11-05T04:32:11.225Z,256.60
2022-11-05T04:34:59.123Z,267.47
2022-11-05T04:37:46.996Z,258.43
2022-11-05T04:40:35.315Z,278.27
2022-11-05T04:43:23.677Z,281.50
2022-11-05T04:46:12.279Z,276.40
2022-11-05T04:49:01.542Z,286.37
2022-11-05T04:51:49.429Z,270.97
2022-11-05T04:54:37.391Z,283.83
2022-11-05T04:57:25.307Z,294.00
2022-11-05T05:00:13.580Z,281.77
2022-11-05T05:03:01.563Z,284.53
2022-11-05T05:05:53.725Z,271.57
2022-11-05T05:08:41.885Z,280.37
2022-11-05T05:11:29.831Z,287.93
2022-11-05T05:14:17.742Z,268.30
2022-11-05T05:17:05.654Z,283.73
2022-11-05T05:20:11.475Z,277.53
2022-11-05T05:23:00.704Z,292.30
2022-11-05T05:25:48.607Z,274.70
2022-11-05T05:28:36.813Z,276.58
2022-11-05T05:31:24.761Z,280.40
2022-11-05T05:34:14.554Z,273.43
2022-11-05T05:37:02.472Z,281.50
2022-11-05T05:39:53.643Z,269.87
2022-11-05T05:42:43.364Z,287.60
2022-11-05T05:45:31.677Z,276.63
2022-11-05T05:48:19.580Z,292.15
2022-11-05T05:51:09.307Z,280.73
2022-11-05T05:53:57.273Z,291.73
2022-11-05T05:56:46.809Z,269.83
2022-11-05T05:59:34.731Z,278.37
2022-11-05T06:02:23.006Z,266.97
2022-11-05T06:05:11.152Z,274.20
2022-11-05T06:07:59.122Z,294.80
2022-11-05T06:10:52.212Z,287.23
2022-11-05T06:13:41.679Z,266.33
2022-11-05T06:16:29.616Z,274.33
2022-11-05T06:19:17.539Z,257.30
2022-11-05T06:22:05.480Z,282.10
2022-11-05T06:24:53.366Z,295.37
2022-11-05T06:27:41.283Z,286.63
2022-11-05T06:30:30.927Z,266.67
2022-11-05T06:33:18.898Z,271.67
2022-11-05T06:36:08.586Z,274.70
2022-11-05T06:38:56.537Z,264.77
2022-11-05T06:42:16.682Z,272.63
2022-11-05T06:44:53.000Z,269.73
2022-11-05T06:47:42.266Z,266.13
2022-11-05T06:50:30.598Z,273.37
2022-11-05T06:53:18.928Z,260.33
2022-11-05T06:56:08.506Z,263.60
2022-11-05T06:58:56.445Z,291.40
2022-11-05T07:01:44.482Z,259.27
2022-11-05T07:04:13.980Z,285.17
2022-11-05T07:06:41.704Z,268.60
2022-11-05T07:09:09.351Z,275.83
2022-11-05T07:11:37.089Z,282.57
2022-11-05T07:14:04.716Z,284.50
2022-11-05T07:16:32.605Z,281.10
2022-11-05T07:19:00.374Z,286.93
2022-11-05T07:21:29.351Z,278.77
2022-11-05T07:23:56.952Z,277.10
2022-11-05T07:26:24.511Z,265.10
2022-11-05T07:28:52.131Z,267.17
2022-11-05T07:31:19.801Z,285.83
2022-11-05T07:33:47.462Z,271.37
2022-11-05T07:36:15.104Z,290.67
2022-11-05T07:38:44.099Z,256.07
2022-11-05T07:41:11.747Z,282.57
2022-11-05T07:43:39.411Z,282.80
2022-11-05T07:46:12.631Z,287.37
2022-11-05T07:48:41.856Z,282.23
2022-11-05T07:51:09.972Z,253.43
2022-11-05T07:53:42.430Z,272.10
2022-11-05T07:56:13.944Z,260.77
2022-11-05T07:58:41.709Z,272.87
2022-11-05T08:01:09.477Z,250.37
2022-11-05T08:03:37.285Z,276.63
2022-11-05T08:06:05.400Z,265.97
2022-11-05T08:08:33.167Z,256.67
2022-11-05T08:11:04.157Z,252.97
2022-11-05T08:13:33.588Z,256.60
2022-11-05T08:16:01.878Z,249.67
2022-11-05T08:18:32.192Z,269.00
2022-11-05T08:21:01.603Z,268.73
2022-11-05T08:23:30.448Z,256.87
2022-11-05T08:25:58.640Z,268.57
2022-11-05T08:28:27.235Z,270.60
2022-11-05T08:30:57.743Z,280.37
2022-11-05T08:33:26.393Z,267.53
2022-11-05T08:35:54.351Z,253.43
2022-11-05T08:38:22.154Z,255.03
2022-11-05T08:40:56.140Z,264.90
2022-11-05T08:43:24.341Z,265.27
2022-11-05T08:45:52.018Z,257.05
2022-11-05T08:48:21.008Z,272.00
2022-11-05T08:50:49.862Z,275.40
2022-11-05T08:53:18.189Z,299.98
2022-11-05T08:55:49.865Z,287.70
2022-11-05T08:58:20.060Z,276.27
2022-11-05T09:00:49.937Z,260.73
2022-11-05T09:03:18.243Z,266.77
2022-11-05T09:05:47.379Z,271.35
2022-11-05T09:08:17.071Z,282.27
2022-11-05T09:10:45.799Z,279.38
2022-11-05T09:13:18.865Z,265.17
2022-11-05T09:15:47.660Z,278.67
2022-11-05T09:18:15.888Z,286.95
2022-11-05T09:20:43.590Z,268.77
2022-11-05T09:23:15.122Z,278.38
2022-11-05T09:25:43.162Z,280.25
2022-11-05T09:28:16.530Z,270.75
2022-11-05T09:30:46.571Z,297.23
2022-11-05T09:33:14.506Z,310.10
2022-11-05T09:35:42.851Z,287.50
2022-11-05T09:38:12.119Z,298.30
2022-11-05T09:40:44.665Z,279.95
2022-11-05T09:43:19.487Z,276.77
2022-11-05T09:45:50.685Z,281.27
2022-11-05T09:48:24.363Z,289.98
2022-11-05T09:50:53.694Z,269.23
2022-11-05T09:53:24.399Z,285.75
2022-11-05T09:55:55.150Z,277.20
2022-11-05T09:58:30.216Z,293.58
2022-11-05T10:00:58.923Z,296.75
2022-11-05T10:03:29.858Z,284.02
2022-11-05T10:06:09.503Z,301.77
2022-11-05T10:08:42.484Z,282.75
2022-11-05T10:11:15.342Z,276.33
2022-11-05T10:13:46.519Z,265.20
2022-11-05T10:16:23.486Z,278.73
2022-11-05T10:18:55.052Z,300.60
2022-11-05T10:21:44.121Z,293.17
2022-11-05T10:24:16.969Z,279.55
2022-11-05T10:26:47.974Z,281.63
2022-11-05T10:29:27.160Z,299.15
2022-11-05T10:31:56.664Z,301.60
2022-11-05T10:34:28.527Z,307.73
2022-11-05T10:36:56.425Z,320.00
2022-11-05T10:39:27.571Z,307.98
2022-11-05T10:42:11.641Z,301.92
2022-11-05T10:44:48.801Z,304.48
2022-11-05T10:47:47.035Z,309.25
2022-11-05T10:50:18.978Z,311.00
2022-11-05T10:52:56.447Z,301.13
2022-11-05T10:55:28.186Z,287.85
2022-11-05T10:57:57.080Z,308.85
2022-11-05T11:00:28.748Z,287.02
2022-11-05T11:02:59.373Z,312.70
2022-11-05T11:05:30.864Z,327.27
2022-11-05T11:08:02.475Z,333.80
2022-11-05T11:10:33.967Z,317.73
2022-11-05T11:13:01.783Z,339.58
2022-11-05T11:15:32.493Z,339.90
2022-11-05T11:18:26.166Z,349.52
2022-11-05T11:20:53.823Z,350.77
2022-11-05T11:23:21.549Z,336.70
2022-11-05T11:25:53.714Z,358.98
2022-11-05T11:28:24.825Z,343.95
2022-11-05T11:30:57.340Z,352.88
2022-11-05T11:33:28.961Z,355.60
2022-11-05T11:35:57.768Z,359.02
2022-11-05T11:38:26.468Z,356.63
2022-11-05T11:41:06.849Z,343.55
2022-11-05T11:43:38.166Z,351.00
2022-11-05T11:46:15.091Z,352.25
2022-11-05T11:48:47.375Z,353.23
2022-11-05T11:51:22.412Z,339.98
2022-11-05T11:53:50.443Z,344.48
2022-11-05T11:56:21.268Z,322.45
2022-11-05T11:58:50.794Z,345.90
2022-11-05T12:01:37.606Z,331.23
2022-11-05T12:04:20.004Z,333.27
2022-11-05T12:06:56.315Z,366.13
2022-11-05T12:09:33.793Z,352.77
2022-11-05T12:12:10.705Z,341.40
2022-11-05T12:14:48.271Z,359.48
2022-11-05T12:17:26.790Z,365.42
2022-11-05T12:20:20.260Z,358.65
2022-11-05T12:23:19.694Z,361.05
2022-11-05T12:25:56.227Z,378.88
2022-11-05T12:28:57.808Z,386.42
2022-11-05T12:31:32.375Z,401.50
2022-11-05T12:34:11.727Z,394.20
2022-11-05T12:37:05.375Z,408.08
2022-11-05T12:39:55.192Z,399.15
2022-11-05T12:42:34.716Z,395.90
2022-11-05T12:45:08.930Z,408.10
2022-11-05T12:47:48.292Z,401.02
2022-11-05T12:50:23.321Z,393.60
2022-11-05T12:53:09.319Z,390.33
2022-11-05T12:55:44.068Z,385.23
2022-11-05T12:58:23.812Z,375.20
2022-11-05T13:00:58.697Z,395.00
2022-11-05T13:03:33.473Z,377.83
2022-11-05T13:06:07.402Z,391.95
2022-11-05T13:08:42.293Z,389.58
2022-11-05T13:11:18.407Z,404.33
2022-11-05T13:13:54.914Z,378.23
2022-11-05T13:16:30.288Z,379.05
2022-11-05T13:19:02.665Z,377.33
2022-11-05T13:21:31.684Z,381.52
2022-11-05T13:24:05.080Z,365.25
2022-11-05T13:26:38.548Z,370.30
2022-11-05T13:29:10.161Z,389.23
2022-11-05T13:31:49.656Z,373.63
2022-11-05T13:34:17.366Z,377.17
2022-11-05T13:37:09.664Z,373.67
2022-11-05T13:39:43.218Z,355.38
2022-11-05T13:42:36.807Z,375.40
2022-11-05T13:45:28.101Z,362.77
2022-11-05T13:48:15.747Z,371.65
2022-11-05T13:51:06.983Z,378.45
2022-11-05T13:53:59.283Z,363.05
2022-11-05T13:56:40.148Z,382.80
2022-11-05T13:59:35.494Z,374.10
2022-11-05T14:02:06.938Z,361.08
2022-11-05T14:04:41.035Z,391.35
2022-11-05T14:07:12.479Z,388.48
2022-11-05T14:09:41.264Z,380.15
2022-11-05T14:12:20.469Z,368.42
2022-11-05T14:14:57.442Z,375.13
2022-11-05T14:17:33.809Z,364.17
2022-11-05T14:20:25.058Z,352.83
2022-11-05T14:22:52.824Z,345.98
2022-11-05T14:26:00.373Z,380.50
2022-11-05T14:28:40.739Z,340.17
2022-11-05T14:31:41.060Z,348.58
2022-11-05T14:34:21.093Z,359.30
2022-11-05T14:39:42.290Z,354.00
2022-11-05T14:42:17.887Z,352.13
2022-11-05T14:45:02.037Z,342.10
2022-11-05T14:47:33.124Z,350.52
2022-11-05T14:50:09.723Z,361.38
2022-11-05T14:52:39.022Z,366.77
2022-11-05T14:55:27.422Z,356.48
2022-11-05T14:58:04.128Z,349.60
2022-11-05T15:00:47.685Z,368.67
2022-11-05T15:03:52.909Z,362.42
2022-11-05T15:06:24.823Z,342.42
2022-11-05T15:09:04.923Z,349.33
2022-11-05T15:11:38.610Z,354.20
2022-11-05T15:14:09.330Z,365.83
2022-11-05T15:16:42.908Z,361.48
2022-11-05T15:19:18.876Z,342.33
2022-11-05T15:21:47.029Z,333.00
2022-11-05T15:24:18.130Z,336.33
2022-11-05T15:27:00.596Z,346.58
2022-11-05T15:29:30.989Z,336.75
2022-11-05T15:32:00.293Z,347.10
2022-11-05T15:34:30.793Z,341.27
2022-11-05T15:37:00.515Z,334.67
2022-11-05T15:39:33.640Z,365.08
2022-11-05T15:42:06.644Z,359.80
2022-11-05T15:44:39.407Z,356.58
2022-11-05T15:47:19.638Z,350.30
2022-11-05T15:49:49.952Z,321.73
2022-11-05T15:52:19.631Z,339.88
2022-11-05T15:54:47.729Z,328.15
2022-11-05T15:57:27.508Z,329.40
2022-11-05T15:59:55.297Z,339.08
2022-11-05T16:02:30.636Z,328.15
2022-11-05T16:04:59.550Z,309.00
2022-11-05T16:07:28.747Z,306.23
2022-11-05T16:09:58.530Z,293.63
2022-11-05T16:12:32.441Z,282.87
2022-11-05T16:15:18.751Z,285.63
2022-11-05T16:17:49.924Z,270.93
2022-11-05T16:20:24.856Z,264.73
2022-11-05T16:22:55.123Z,261.50
2022-11-05T16:25:38.905Z,242.70
2022-11-05T16:28:21.603Z,248.57
2022-11-05T16:30:54.299Z,230.20
2022-11-05T16:33:22.701Z,233.17
2022-11-05T16:35:51.109Z,231.07
2022-11-05T16:38:20.426Z,248.57
2022-11-05T16:40:48.131Z,224.70
2022-11-05T16:43:22.036Z,228.37
2022-11-05T16:45:53.771Z,216.80
2022-11-05T16:48:22.134Z,223.20
2022-11-05T16:50:49.819Z,203.93
2022-11-05T16:53:18.641Z,211.73
2022-11-05T16:55:46.900Z,225.27
2022-11-05T16:58:22.098Z,223.63
2022-11-05T17:00:51.404Z,225.33
2022-11-05T17:03:19.747Z,221.37
2022-11-05T17:05:47.942Z,226.20
2022-11-05T17:08:15.947Z,232.57
2022-11-05T17:10:43.916Z,224.77
2022-11-05T17:13:15.112Z,217.67
2022-11-05T17:15:46.252Z,218.67
2022-11-05T17:18:18.629Z,226.17
2022-11-05T17:20:48.552Z,216.80
2022-11-05T17:23:17.684Z,218.93
2022-11-05T17:25:48.241Z,212.87
2022-11-05T17:28:17.221Z,218.70
2022-11-05T17:30:52.289Z,212.30
2022-11-05T17:33:22.550Z,200.27
2022-11-05T17:35:50.934Z,206.60
2022-11-05T17:38:18.916Z,217.43
2022-11-05T17:40:46.741Z,192.37
2022-11-05T17:43:15.444Z,188.37
2022-11-05T17:45:44.666Z,191.43
2022-11-05T17:48:14.308Z,201.17
2022-11-05T17:50:42.644Z,201.97
2022-11-05T17:53:11.181Z,187.00
2022-11-05T17:55:41.400Z,178.93
2022-11-05T17:58:09.504Z,183.87
2022-11-05T18:00:37.857Z,172.63
2022-11-05T18:03:06.072Z,177.97
2022-11-05T18:05:36.236Z,172.40
2022-11-05T18:08:04.586Z,182.67
2022-11-05T18:10:32.262Z,173.77
2022-11-05T18:13:00.109Z,154.83
2022-11-05T18:15:27.831Z,156.57
2022-11-05T18:17:55.597Z,162.87
2022-11-05T18:20:23.327Z,158.83
2022-11-05T18:22:52.695Z,149.97
2022-11-05T18:25:20.475Z,159.17
2022-11-05T18:27:48.135Z,150.60
2022-11-05T18:30:15.943Z,138.87
2022-11-05T18:32:44.190Z,154.20
2022-11-05T18:35:13.082Z,148.67
2022-11-05T18:37:41.017Z,157.80
2022-11-05T18:40:11.584Z,156.47
2022-11-05T18:42:39.302Z,157.43
2022-11-05T18:45:08.532Z,152.17
2022-11-05T18:47:36.718Z,155.83
2022-11-05T18:50:05.499Z,151.87
2022-11-05T18:52:33.738Z,162.73
2022-11-05T18:55:01.365Z,156.60
2022-11-05T18:57:30.368Z,155.07
2022-11-05T18:59:58.060Z,154.90
2022-11-05T19:02:26.055Z,148.70
2022-11-05T19:05:27.504Z,150.53
2022-11-05T19:07:41.448Z,153.60
2022-11-05T19:10:10.337Z,146.27
2022-11-05T19:12:39.419Z,147.47
2022-11-05T19:15:08.026Z,161.93
2022-11-05T19:17:36.432Z,153.23
2022-11-05T19:20:05.322Z,151.83
2022-11-05T19:22:33.260Z,146.77
2022-11-05T19:25:00.919Z,157.77
2022-11-05T19:27:28.733Z,150.03
2022-11-05T19:29:57.705Z,161.00
2022-11-05T19:32:25.338Z,152.73
2022-11-05T19:34:52.959Z,138.07
2022-11-05T19:37:20.659Z,162.37
2022-11-05T19:39:48.359Z,158.43
2022-11-05T19:42:16.031Z,164.17
2022-11-05T19:44:44.144Z,160.20
2022-11-05T19:47:13.121Z,177.30
2022-11-05T19:49:40.757Z,156.07
2022-11-05T19:52:08.409Z,162.60
2022-11-05T19:54:36.419Z,155.30
2022-11-05T19:57:04.214Z,152.50
2022-11-05T19:59:31.905Z,155.27
2022-11-05T20:01:59.696Z,156.67
2022-11-05T20:04:28.800Z,163.80
2022-11-05T20:06:56.424Z,150.17
2022-11-05T20:09:24.412Z,165.67
2022-11-05T20:11:54.164Z,158.03
2022-11-05T20:14:22.023Z,155.23
2022-11-05T20:16:50.176Z,166.93
2022-11-05T20:19:20.150Z,162.63
2022-11-05T20:21:49.683Z,169.30
2022-11-05T20:24:24.219Z,149.90
2022-11-05T20:26:52.809Z,142.53
2022-11-05T20:29:20.659Z,161.37
2022-11-05T20:31:48.467Z,161.00
2022-11-05T20:34:16.104Z,154.73
2022-11-05T20:36:43.804Z,151.47
2022-11-05T20:39:13.163Z,152.50
2022-11-05T20:41:40.775Z,148.60
2022-11-05T20:44:08.450Z,152.77
2022-11-05T20:46:36.113Z,154.43
2022-11-05T20:49:03.798Z,167.63
2022-11-05T20:51:31.527Z,153.43
2022-11-05T20:54:01.159Z,148.63
2022-11-05T20:56:32.486Z,138.63
2022-11-05T20:59:01.385Z,148.80
2022-11-05T21:01:30.838Z,144.13
2022-11-05T21:04:17.202Z,142.97
2022-11-05T21:07:05.245Z,140.13
2022-11-05T21:09:53.163Z,147.07
2022-11-05T21:12:42.738Z,126.23
2022-11-05T21:15:30.744Z,130.00
2022-11-05T21:18:18.976Z,134.13
2022-11-05T21:21:08.647Z,138.93
2022-11-05T21:23:58.020Z,125.70
2022-11-05T21:26:46.248Z,133.77
2022-11-05T21:29:35.522Z,133.23
2022-11-05T21:32:23.460Z,123.77
2022-11-05T21:35:11.374Z,126.60
2022-11-05T21:37:59.491Z,117.60
2022-11-05T21:40:47.938Z,130.20
2022-11-05T21:43:36.433Z,128.97
2022-11-05T21:46:26.034Z,138.13
2022-11-05T21:49:14.678Z,123.37
2022-11-05T21:52:20.496Z,133.30
2022-11-05T21:55:36.382Z,118.50
2022-11-05T21:58:42.090Z,121.60
2022-11-05T22:01:31.620Z,136.67
2022-11-05T22:04:19.611Z,128.03
2022-11-05T22:07:09.371Z,134.80
2022-11-05T22:09:57.308Z,131.83
2022-11-05T22:12:45.734Z,125.37
2022-11-05T22:15:33.681Z,130.13
2022-11-05T22:18:23.084Z,133.67
2022-11-05T22:21:16.798Z,132.10
2022-11-05T22:24:04.882Z,136.10
2022-11-05T22:26:52.825Z,123.17
2022-11-05T22:29:41.095Z,120.23
2022-11-05T22:32:29.027Z,132.13
2022-11-05T22:35:18.431Z,139.03
2022-11-05T22:38:06.334Z,138.20
2022-11-05T22:40:54.228Z,149.87
2022-11-05T22:43:42.243Z,139.20
2022-11-05T22:46:30.876Z,130.93
2022-11-05T22:49:18.920Z,154.40
2022-11-05T22:52:08.172Z,157.50
2022-11-05T22:54:56.164Z,138.13
2022-11-05T22:57:44.521Z,148.33
2022-11-05T23:00:35.985Z,146.57
2022-11-05T23:03:25.373Z,160.73
2022-11-05T23:06:29.229Z,146.80
2022-11-05T23:09:37.723Z,154.60
2022-11-05T23:12:29.251Z,170.57
2022-11-05T23:15:31.120Z,170.90
2022-11-05T23:18:36.818Z,176.17
2022-11-05T23:21:42.449Z,170.00
2022-11-05T23:24:31.725Z,195.40
2022-11-05T23:27:19.654Z,187.03
2022-11-05T23:30:10.318Z,189.13
2022-11-05T23:32:58.633Z,186.60
2022-11-05T23:36:04.648Z,187.80
2022-11-05T23:38:52.563Z,200.80
2022-11-05T23:41:58.540Z,200.67
2022-11-05T23:45:04.249Z,210.07
2022-11-05T23:48:10.034Z,211.60
2022-11-05T23:51:00.964Z,214.13
2022-11-05T23:53:48.883Z,214.60
2022-11-05T23:56:37.180Z,216.37
2022-11-05T23:59:26.605Z,230.63
